createdAt,value
2019-02-18T00:00:03.881Z,7.60
2019-02-18T00:02:38.653Z,7.60
2019-02-18T00:05:12.250Z,7.70
2019-02-18T00:07:45.110Z,7.60
2019-02-18T00:10:18.070Z,7.60
2019-02-18T00:12:51.473Z,7.60
2019-02-18T00:15:24.556Z,7.60
2019-02-18T00:17:57.718Z,7.70
2019-02-18T00:20:30.716Z,7.70
2019-02-18T00:23:03.820Z,7.70
2019-02-18T00:25:36.969Z,7.80
2019-02-18T00:28:09.938Z,7.90
2019-02-18T00:30:42.820Z,7.90
2019-02-18T00:33:15.615Z,7.80
2019-02-18T00:35:48.510Z,7.70
2019-02-18T00:38:21.455Z,7.70
2019-02-18T00:40:54.478Z,7.70
2019-02-18T00:43:27.381Z,7.80
2019-02-18T00:46:00.368Z,8.00
2019-02-18T00:48:33.318Z,7.90
2019-02-18T00:51:06.344Z,7.80
2019-02-18T00:53:39.595Z,7.70
2019-02-18T00:56:12.690Z,7.70
2019-02-18T00:58:45.875Z,7.60
2019-02-18T01:01:18.881Z,7.70
2019-02-18T01:03:52.075Z,7.80
2019-02-18T01:06:25.145Z,7.80
2019-02-18T01:08:58.121Z,7.80
2019-02-18T01:11:31.139Z,7.80
2019-02-18T01:14:04.054Z,7.80
2019-02-18T01:16:36.911Z,7.70
2019-02-18T01:19:09.816Z,7.60
2019-02-18T01:21:42.639Z,7.60
2019-02-18T01:24:15.779Z,7.60
2019-02-18T01:26:48.559Z,7.60
2019-02-18T01:29:21.549Z,7.60
2019-02-18T01:31:54.329Z,7.50
2019-02-18T01:34:28.847Z,7.50
2019-02-18T01:37:01.819Z,7.40
2019-02-18T01:39:34.995Z,7.40
2019-02-18T01:42:07.778Z,7.30
2019-02-18T01:44:40.872Z,7.20
2019-02-18T01:47:14.859Z,7.10
2019-02-18T01:49:48.084Z,7.10
2019-02-18T01:52:21.365Z,7.10
2019-02-18T01:54:54.316Z,7.00
2019-02-18T01:57:27.235Z,7.10
2019-02-18T02:00:00.017Z,7.10
2019-02-18T02:02:32.878Z,7.10
2019-02-18T02:05:06.207Z,7.00
2019-02-18T02:07:39.180Z,6.90
2019-02-18T02:10:13.432Z,6.80
2019-02-18T02:12:46.293Z,6.70
2019-02-18T02:15:25.246Z,6.50
2019-02-18T02:17:58.131Z,6.40
2019-02-18T02:20:31.054Z,6.30
2019-02-18T02:23:04.255Z,6.20
2019-02-18T02:25:37.122Z,6.10
2019-02-18T02:28:10.116Z,6.00
2019-02-18T02:30:43.262Z,5.90
2019-02-18T02:33:16.088Z,5.90
2019-02-18T02:35:49.102Z,5.80
2019-02-18T02:38:22.071Z,5.80
2019-02-18T02:40:54.968Z,5.70
2019-02-18T02:43:28.150Z,5.60
2019-02-18T02:46:01.004Z,5.60
2019-02-18T02:48:33.956Z,5.60
2019-02-18T02:51:06.926Z,5.60
2019-02-18T02:53:40.247Z,5.50
2019-02-18T02:56:13.016Z,5.50
2019-02-18T02:58:45.964Z,5.50
2019-02-18T03:01:18.838Z,5.50
2019-02-18T03:03:51.830Z,5.70
2019-02-18T03:06:24.630Z,5.70
2019-02-18T03:08:57.774Z,5.60
2019-02-18T03:11:30.827Z,5.50
2019-02-18T03:14:03.680Z,5.50
2019-02-18T03:16:36.801Z,5.50
2019-02-18T03:19:09.925Z,5.50
2019-02-18T03:21:42.793Z,5.60
2019-02-18T03:24:15.819Z,5.60
2019-02-18T03:26:48.815Z,5.80
2019-02-18T03:30:12.635Z,5.90
2019-02-18T03:32:49.472Z,5.90
2019-02-18T03:35:22.542Z,6.00
2019-02-18T03:37:55.463Z,6.10
2019-02-18T03:40:28.780Z,6.10
2019-02-18T03:43:01.963Z,6.20
2019-02-18T03:45:35.101Z,6.30
2019-02-18T03:48:08.095Z,6.40
2019-02-18T03:50:40.958Z,6.40
2019-02-18T03:53:13.962Z,6.40
2019-02-18T03:55:48.109Z,6.30
2019-02-18T03:58:21.280Z,6.30
2019-02-18T04:00:54.251Z,6.10
2019-02-18T04:03:27.263Z,6.20
2019-02-18T04:06:00.302Z,6.20
2019-02-18T04:08:42.459Z,6.20
2019-02-18T04:11:07.783Z,6.30
2019-02-18T04:13:40.678Z,6.20
2019-02-18T04:16:13.542Z,6.10
2019-02-18T04:18:46.445Z,6.00
2019-02-18T04:21:19.207Z,5.90
2019-02-18T04:23:52.245Z,5.70
2019-02-18T04:26:25.462Z,5.70
2019-02-18T04:28:58.364Z,5.60
2019-02-18T04:31:31.223Z,5.50
2019-02-18T04:34:04.233Z,5.40
2019-02-18T04:36:37.248Z,5.40
2019-02-18T04:39:10.327Z,5.30
2019-02-18T04:41:43.141Z,5.40
2019-02-18T04:44:16.028Z,5.60
2019-02-18T04:46:48.921Z,5.60
2019-02-18T04:49:21.824Z,5.60
2019-02-18T04:51:54.866Z,5.70
2019-02-18T04:54:27.764Z,5.80
2019-02-18T04:57:00.726Z,5.80
2019-02-18T04:59:33.592Z,5.80
2019-02-18T05:02:06.496Z,5.90
2019-02-18T05:04:39.519Z,5.80
2019-02-18T05:07:12.707Z,5.80
2019-02-18T05:09:45.845Z,5.80
2019-02-18T05:12:18.899Z,5.90
2019-02-18T05:14:52.143Z,5.90
2019-02-18T05:17:25.257Z,5.80
2019-02-18T05:19:58.327Z,5.90
2019-02-18T05:22:31.276Z,6.00
2019-02-18T05:25:04.208Z,6.00
2019-02-18T05:27:37.297Z,6.10
2019-02-18T05:30:10.418Z,6.20
2019-02-18T05:32:43.175Z,6.10
2019-02-18T05:35:16.334Z,6.10
2019-02-18T05:37:49.224Z,6.00
2019-02-18T05:40:22.061Z,5.90
2019-02-18T05:42:55.089Z,5.90
2019-02-18T05:45:29.000Z,5.80
2019-02-18T05:48:01.963Z,5.80
2019-02-18T05:50:34.843Z,5.80
2019-02-18T05:53:07.786Z,5.80
2019-02-18T05:55:40.595Z,5.80
2019-02-18T05:58:13.388Z,5.70
2019-02-18T06:00:46.819Z,5.70
2019-02-18T06:03:19.738Z,5.60
2019-02-18T06:05:52.964Z,5.50
2019-02-18T06:08:25.824Z,5.40
2019-02-18T06:10:58.789Z,5.40
2019-02-18T06:13:31.811Z,5.30
2019-02-18T06:16:05.841Z,5.40
2019-02-18T06:18:38.817Z,5.40
2019-02-18T06:21:11.771Z,5.50
2019-02-18T06:23:44.579Z,5.50
2019-02-18T06:26:17.726Z,5.50
2019-02-18T06:28:50.699Z,5.60
2019-02-18T06:31:23.620Z,5.60
2019-02-18T06:33:56.609Z,5.60
2019-02-18T06:36:29.585Z,5.60
2019-02-18T06:39:04.310Z,5.60
2019-02-18T06:41:38.130Z,5.50
2019-02-18T06:44:11.037Z,5.40
2019-02-18T06:46:52.788Z,5.30
2019-02-18T06:49:27.325Z,5.40
2019-02-18T06:52:20.767Z,5.40
2019-02-18T06:54:53.870Z,5.50
2019-02-18T06:57:41.330Z,5.50
2019-02-18T07:00:21.359Z,5.60
2019-02-18T07:03:08.416Z,5.70
2019-02-18T07:06:15.730Z,5.70
2019-02-18T07:08:56.174Z,5.70
2019-02-18T07:11:35.761Z,5.70
2019-02-18T07:14:08.726Z,5.70
2019-02-18T07:16:41.959Z,5.70
2019-02-18T07:19:14.896Z,5.80
2019-02-18T07:21:47.851Z,5.90
2019-02-18T07:24:20.870Z,5.90
2019-02-18T07:26:53.912Z,6.00
2019-02-18T07:29:26.783Z,6.10
2019-02-18T07:31:59.749Z,6.30
2019-02-18T07:34:33.004Z,6.50
2019-02-18T07:37:06.019Z,6.50
2019-02-18T07:39:39.205Z,6.60
2019-02-18T07:42:13.089Z,6.60
2019-02-18T07:44:46.576Z,6.60
2019-02-18T07:47:19.744Z,6.70
2019-02-18T07:49:53.056Z,6.80
2019-02-18T07:52:26.485Z,6.90
2019-02-18T07:54:59.827Z,7.00
2019-02-18T07:57:33.852Z,7.10
2019-02-18T08:00:08.750Z,7.20
2019-02-18T08:02:43.032Z,7.30
2019-02-18T08:05:16.602Z,7.50
2019-02-18T08:07:49.596Z,7.70
2019-02-18T08:10:22.501Z,7.80
2019-02-18T08:12:55.521Z,7.90
2019-02-18T08:15:28.526Z,8.10
2019-02-18T08:18:01.370Z,8.30
2019-02-18T08:20:34.571Z,8.40
2019-02-18T08:23:07.650Z,8.60
2019-02-18T08:25:40.855Z,8.70
2019-02-18T08:28:15.565Z,8.90
2019-02-18T08:30:48.481Z,9.00
2019-02-18T08:33:21.558Z,9.20
2019-02-18T08:35:54.795Z,9.30
2019-02-18T08:38:27.756Z,9.40
2019-02-18T08:41:00.692Z,9.60
2019-02-18T08:43:33.942Z,9.70
2019-02-18T08:46:07.043Z,9.70
2019-02-18T08:48:40.027Z,9.90
2019-02-18T08:51:14.261Z,9.90
2019-02-18T08:53:48.008Z,10.00
2019-02-18T08:56:21.215Z,10.20
2019-02-18T08:58:54.056Z,10.30
2019-02-18T09:01:27.145Z,10.60
2019-02-18T09:04:00.062Z,10.80
2019-02-18T09:06:33.113Z,11.00
2019-02-18T09:09:06.411Z,11.40
2019-02-18T09:11:40.987Z,11.70
2019-02-18T09:14:14.115Z,11.70
2019-02-18T09:16:47.305Z,11.60
2019-02-18T09:19:20.409Z,11.90
2019-02-18T09:22:05.081Z,12.20
2019-02-18T09:24:46.526Z,12.40
2019-02-18T09:27:19.593Z,11.90
2019-02-18T09:29:52.843Z,11.50
2019-02-18T09:32:25.737Z,11.40
2019-02-18T09:35:02.098Z,11.70
2019-02-18T09:37:33.821Z,11.70
2019-02-18T09:40:07.246Z,11.70
2019-02-18T09:42:40.343Z,11.80
2019-02-18T09:45:14.897Z,11.90
2019-02-18T09:47:48.042Z,12.00
2019-02-18T09:50:21.129Z,12.40
2019-02-18T09:52:53.943Z,12.50
2019-02-18T09:55:26.793Z,12.60
2019-02-18T09:57:59.787Z,12.80
2019-02-18T10:00:32.586Z,13.10
2019-02-18T10:03:05.567Z,13.30
2019-02-18T10:05:38.499Z,13.50
2019-02-18T10:08:12.697Z,13.30
2019-02-18T10:10:55.422Z,13.40
2019-02-18T10:13:20.597Z,13.60
2019-02-18T10:15:53.602Z,13.50
2019-02-18T10:18:26.471Z,13.40
2019-02-18T10:20:59.583Z,13.50
2019-02-18T10:23:32.431Z,13.60
2019-02-18T10:26:05.572Z,13.90
2019-02-18T10:28:39.580Z,13.90
2019-02-18T10:31:12.703Z,13.90
2019-02-18T10:33:45.500Z,14.00
2019-02-18T10:36:18.469Z,14.30
2019-02-18T10:38:51.381Z,14.20
2019-02-18T10:41:24.716Z,14.10
2019-02-18T10:43:57.682Z,14.80
2019-02-18T10:46:30.818Z,15.30
2019-02-18T10:49:03.907Z,15.30
2019-02-18T10:51:37.153Z,15.30
2019-02-18T10:54:10.632Z,15.50
2019-02-18T10:56:43.617Z,15.60
2019-02-18T10:59:16.653Z,15.60
2019-02-18T11:01:49.625Z,15.50
2019-02-18T11:04:22.870Z,15.50
2019-02-18T11:06:56.240Z,15.50
2019-02-18T11:09:29.213Z,15.70
2019-02-18T11:12:02.221Z,15.90
2019-02-18T11:14:35.158Z,15.70
2019-02-18T11:17:08.993Z,15.80
2019-02-18T11:19:41.987Z,15.80
2019-02-18T11:22:14.840Z,16.00
2019-02-18T11:24:47.855Z,16.60
2019-02-18T11:27:20.745Z,16.70
2019-02-18T11:29:53.844Z,16.90
2019-02-18T11:32:27.043Z,17.20
2019-02-18T11:35:00.753Z,17.20
2019-02-18T11:37:34.144Z,17.50
2019-02-18T11:40:09.435Z,17.30
2019-02-18T11:42:42.431Z,17.20
2019-02-18T11:45:15.611Z,17.80
2019-02-18T11:47:48.700Z,17.80
2019-02-18T11:50:21.774Z,17.80
2019-02-18T11:52:54.836Z,18.20
2019-02-18T11:55:28.172Z,18.40
2019-02-18T11:58:02.454Z,17.90
2019-02-18T12:00:35.735Z,18.00
2019-02-18T12:03:12.334Z,17.70
2019-02-18T12:05:43.348Z,17.40
2019-02-18T12:08:16.279Z,17.70
2019-02-18T12:10:49.376Z,18.10
2019-02-18T12:13:23.279Z,18.60
2019-02-18T12:15:56.586Z,18.90
2019-02-18T12:18:30.060Z,18.90
2019-02-18T12:21:03.147Z,18.60
2019-02-18T12:23:37.230Z,18.50
2019-02-18T12:26:10.336Z,18.90
2019-02-18T12:28:45.136Z,19.40
2019-02-18T12:31:17.886Z,19.50
2019-02-18T12:33:52.095Z,19.90
2019-02-18T12:36:25.024Z,20.30
2019-02-18T12:38:59.051Z,20.30
2019-02-18T12:41:32.365Z,20.10
2019-02-18T12:44:05.335Z,20.10
2019-02-18T12:46:38.289Z,20.20
2019-02-18T12:49:11.237Z,20.70
2019-02-18T12:51:44.074Z,20.50
2019-02-18T12:54:17.306Z,20.90
2019-02-18T12:56:50.424Z,20.70
2019-02-18T12:59:23.493Z,20.90
2019-02-18T13:01:56.461Z,20.90
2019-02-18T13:04:31.750Z,20.80
2019-02-18T13:07:04.372Z,20.50
2019-02-18T13:09:37.504Z,20.20
2019-02-18T13:12:10.620Z,20.00
2019-02-18T13:14:43.699Z,20.70
2019-02-18T13:17:16.526Z,21.30
2019-02-18T13:19:49.821Z,21.00
2019-02-18T13:22:22.870Z,21.60
2019-02-18T13:24:55.880Z,21.80
2019-02-18T13:27:28.875Z,21.70
2019-02-18T13:30:01.877Z,20.90
2019-02-18T13:32:35.187Z,20.40
2019-02-18T13:35:08.521Z,21.10
2019-02-18T13:37:41.676Z,21.10
2019-02-18T13:40:15.265Z,21.90
2019-02-18T13:42:48.846Z,21.80
2019-02-18T13:45:24.802Z,21.40
2019-02-18T13:47:57.706Z,21.60
2019-02-18T13:50:31.841Z,22.10
2019-02-18T13:53:04.789Z,22.50
2019-02-18T13:55:37.733Z,21.80
2019-02-18T13:58:10.667Z,21.70
2019-02-18T14:00:43.755Z,21.90
2019-02-18T14:03:16.952Z,21.10
2019-02-18T14:05:50.406Z,21.00
2019-02-18T14:08:23.455Z,20.90
2019-02-18T14:10:57.641Z,21.30
2019-02-18T14:13:30.740Z,21.40
2019-02-18T14:16:03.696Z,21.40
2019-02-18T14:18:36.651Z,20.60
2019-02-18T14:21:09.641Z,21.30
2019-02-18T14:23:42.512Z,20.80
2019-02-18T14:26:15.722Z,21.10
2019-02-18T14:28:48.910Z,20.90
2019-02-18T14:31:21.977Z,21.20
2019-02-18T14:33:55.191Z,21.00
2019-02-18T14:36:28.147Z,20.40
2019-02-18T14:39:02.578Z,20.70
2019-02-18T14:41:37.437Z,21.10
2019-02-18T14:44:10.427Z,21.00
2019-02-18T14:46:43.751Z,20.60
2019-02-18T14:49:16.858Z,21.20
2019-02-18T14:51:49.872Z,21.40
2019-02-18T14:54:23.417Z,21.20
2019-02-18T14:56:56.382Z,20.40
2019-02-18T14:59:29.798Z,20.10
2019-02-18T15:02:03.247Z,19.50
2019-02-18T15:04:36.235Z,19.60
2019-02-18T15:07:09.122Z,19.40
2019-02-18T15:09:42.192Z,19.50
2019-02-18T15:12:15.365Z,19.70
2019-02-18T15:14:48.437Z,19.30
2019-02-18T15:17:21.424Z,19.20
2019-02-18T15:19:54.507Z,19.00
2019-02-18T15:22:27.463Z,18.90
2019-02-18T15:25:01.028Z,19.20
2019-02-18T15:27:33.952Z,18.50
2019-02-18T15:30:08.111Z,17.90
2019-02-18T15:32:41.263Z,17.60
2019-02-18T15:35:14.861Z,17.30
2019-02-18T15:37:48.085Z,17.00
2019-02-18T15:40:21.282Z,16.80
2019-02-18T15:42:54.219Z,16.90
2019-02-18T15:45:27.339Z,16.80
2019-02-18T15:48:01.921Z,16.70
2019-02-18T15:50:35.143Z,16.70
2019-02-18T15:53:08.253Z,16.60
2019-02-18T15:55:42.572Z,16.30
2019-02-18T15:58:15.900Z,16.30
2019-02-18T16:00:49.169Z,16.00
2019-02-18T16:03:22.296Z,16.00
2019-02-18T16:05:55.558Z,15.90
2019-02-18T16:08:28.724Z,15.60
2019-02-18T16:11:02.032Z,15.60
2019-02-18T16:13:35.254Z,15.30
2019-02-18T16:16:08.308Z,15.00
2019-02-18T16:18:44.497Z,14.70
2019-02-18T16:21:18.082Z,14.60
2019-02-18T16:23:51.073Z,14.40
2019-02-18T16:26:24.043Z,14.30
2019-02-18T16:28:56.939Z,14.20
2019-02-18T16:31:30.985Z,14.00
2019-02-18T16:34:04.453Z,13.90
2019-02-18T16:36:37.492Z,13.80
2019-02-18T16:39:11.395Z,13.70
2019-02-18T16:41:44.704Z,13.60
2019-02-18T16:44:17.924Z,13.50
2019-02-18T16:46:51.104Z,13.40
2019-02-18T16:49:26.875Z,13.40
2019-02-18T16:52:02.444Z,13.20
2019-02-18T16:54:40.773Z,13.20
2019-02-18T16:57:14.418Z,13.00
2019-02-18T16:59:47.580Z,13.00
2019-02-18T17:02:20.676Z,12.90
2019-02-18T17:04:53.914Z,12.80
2019-02-18T17:07:27.068Z,12.80
2019-02-18T17:10:00.273Z,12.70
2019-02-18T17:12:33.443Z,12.60
2019-02-18T17:15:07.583Z,12.60
2019-02-18T17:17:40.669Z,12.50
2019-02-18T17:20:13.630Z,12.50
2019-02-18T17:22:46.560Z,12.40
2019-02-18T17:25:19.711Z,12.30
2019-02-18T17:27:52.854Z,12.30
2019-02-18T17:30:26.000Z,12.20
2019-02-18T17:32:58.985Z,12.20
2019-02-18T17:35:31.991Z,12.10
2019-02-18T17:38:04.864Z,12.10
2019-02-18T17:40:38.040Z,12.10
2019-02-18T17:43:16.301Z,12.00
2019-02-18T17:45:46.196Z,12.00
2019-02-18T17:48:19.231Z,12.00
2019-02-18T17:50:52.620Z,11.90
2019-02-18T17:53:25.515Z,11.80
2019-02-18T17:55:58.615Z,11.70
2019-02-18T17:58:31.625Z,11.60
2019-02-18T18:01:04.637Z,11.50
2019-02-18T18:03:37.607Z,11.50
2019-02-18T18:06:10.623Z,11.40
2019-02-18T18:08:44.065Z,11.30
2019-02-18T18:11:17.175Z,11.30
2019-02-18T18:13:50.401Z,11.20
2019-02-18T18:16:23.620Z,11.20
2019-02-18T18:18:56.489Z,11.20
2019-02-18T18:21:29.447Z,11.10
2019-02-18T18:24:03.535Z,11.10
2019-02-18T18:26:36.715Z,11.10
2019-02-18T18:29:09.997Z,11.00
2019-02-18T18:31:43.149Z,10.90
2019-02-18T18:34:16.331Z,10.90
2019-02-18T18:36:49.686Z,10.80
2019-02-18T18:39:22.992Z,10.70
2019-02-18T18:41:56.287Z,10.70
2019-02-18T18:44:29.371Z,10.70
2019-02-18T18:47:02.330Z,10.60
2019-02-18T18:49:35.589Z,10.60
2019-02-18T18:52:08.640Z,10.60
2019-02-18T18:54:41.790Z,10.60
2019-02-18T18:57:15.074Z,10.60
2019-02-18T18:59:48.223Z,10.50
2019-02-18T19:02:21.497Z,10.40
2019-02-18T19:04:54.694Z,10.40
2019-02-18T19:07:27.575Z,10.30
2019-02-18T19:10:00.959Z,10.30
2019-02-18T19:12:34.962Z,10.20
2019-02-18T19:15:08.401Z,10.10
2019-02-18T19:17:41.723Z,10.00
2019-02-18T19:20:14.992Z,9.90
2019-02-18T19:22:48.180Z,9.70
2019-02-18T19:25:21.447Z,9.70
2019-02-18T19:27:54.670Z,9.70
2019-02-18T19:30:27.898Z,9.70
2019-02-18T19:33:00.954Z,9.70
2019-02-18T19:35:33.938Z,9.70
2019-02-18T19:38:07.172Z,9.70
2019-02-18T19:40:40.317Z,9.60
2019-02-18T19:43:14.622Z,9.60
2019-02-18T19:45:47.695Z,9.60
2019-02-18T19:48:20.736Z,9.50
2019-02-18T19:50:53.875Z,9.40
2019-02-18T19:53:27.337Z,9.30
2019-02-18T19:56:00.376Z,9.30
2019-02-18T19:58:34.476Z,9.20
2019-02-18T20:01:07.588Z,9.20
2019-02-18T20:03:40.813Z,9.10
2019-02-18T20:06:13.880Z,9.10
2019-02-18T20:08:46.944Z,9.00
2019-02-18T20:11:20.046Z,9.00
2019-02-18T20:13:58.749Z,8.90
2019-02-18T20:16:27.721Z,8.80
2019-02-18T20:19:00.596Z,8.80
2019-02-18T20:21:33.585Z,8.80
2019-02-18T20:24:06.551Z,8.70
2019-02-18T20:26:39.970Z,8.70
2019-02-18T20:29:13.507Z,8.70
2019-02-18T20:31:46.654Z,8.70
2019-02-18T20:34:19.790Z,8.70
2019-02-18T20:36:52.887Z,8.70
2019-02-18T20:39:26.038Z,8.70
2019-02-18T20:41:59.134Z,8.70
2019-02-18T20:44:32.293Z,8.70
2019-02-18T20:47:05.458Z,8.70
2019-02-18T20:49:38.869Z,8.70
2019-02-18T20:52:11.893Z,8.70
2019-02-18T20:54:45.121Z,8.70
2019-02-18T20:57:18.146Z,8.70
2019-02-18T20:59:51.108Z,8.60
2019-02-18T21:02:24.183Z,8.60
2019-02-18T21:04:57.236Z,8.60
2019-02-18T21:07:30.690Z,8.60
2019-02-18T21:10:03.964Z,8.60
2019-02-18T21:12:37.289Z,8.60
2019-02-18T21:15:10.439Z,8.50
2019-02-18T21:17:43.564Z,8.50
2019-02-18T21:20:16.599Z,8.50
2019-02-18T21:22:49.913Z,8.50
2019-02-18T21:25:22.869Z,8.50
2019-02-18T21:27:56.297Z,8.60
2019-02-18T21:30:29.568Z,8.60
2019-02-18T21:33:02.574Z,8.60
2019-02-18T21:35:35.612Z,8.50
2019-02-18T21:38:08.739Z,8.50
2019-02-18T21:40:41.797Z,8.40
2019-02-18T21:43:15.169Z,8.30
2019-02-18T21:45:48.503Z,8.30
2019-02-18T21:48:21.510Z,8.30
2019-02-18T21:50:54.674Z,8.30
2019-02-18T21:53:27.823Z,8.30
2019-02-18T21:56:01.153Z,8.20
2019-02-18T21:58:34.239Z,8.30
2019-02-18T22:01:07.199Z,8.30
2019-02-18T22:03:40.388Z,8.40
2019-02-18T22:06:13.448Z,8.30
2019-02-18T22:08:46.778Z,8.30
2019-02-18T22:11:20.051Z,8.30
2019-02-18T22:13:53.127Z,8.20
2019-02-18T22:16:26.229Z,8.20
2019-02-18T22:18:59.269Z,8.20
2019-02-18T22:21:32.369Z,8.30
2019-02-18T22:24:05.441Z,8.30
2019-02-18T22:26:38.748Z,8.30
2019-02-18T22:29:11.639Z,8.20
2019-02-18T22:31:44.547Z,8.20
2019-02-18T22:34:17.688Z,8.10
2019-02-18T22:36:50.925Z,8.10
2019-02-18T22:39:24.034Z,8.10
2019-02-18T22:41:57.139Z,8.10
2019-02-18T22:44:31.229Z,8.10
2019-02-18T22:47:05.257Z,8.10
2019-02-18T22:49:38.094Z,8.20
2019-02-18T22:52:11.110Z,8.10
2019-02-18T22:54:43.996Z,8.20
2019-02-18T22:57:17.508Z,8.10
2019-02-18T22:59:50.479Z,8.10
2019-02-18T23:02:23.754Z,8.10
2019-02-18T23:04:56.624Z,8.00
2019-02-18T23:07:29.791Z,8.00
2019-02-18T23:10:02.902Z,8.00
2019-02-18T23:12:36.090Z,8.00
2019-02-18T23:15:09.865Z,8.00
2019-02-18T23:17:42.804Z,8.00
2019-02-18T23:20:16.023Z,8.00
2019-02-18T23:22:48.914Z,8.00
2019-02-18T23:25:22.019Z,8.00
2019-02-18T23:27:54.765Z,8.00
2019-02-18T23:30:27.704Z,8.10
2019-02-18T23:33:01.117Z,8.10
2019-02-18T23:35:33.969Z,8.20
2019-02-18T23:38:06.844Z,8.10
2019-02-18T23:40:39.883Z,8.20
2019-02-18T23:43:12.714Z,8.20
2019-02-18T23:45:45.689Z,8.10
2019-02-18T23:48:18.454Z,8.10
2019-02-18T23:50:51.352Z,8.00
2019-02-18T23:53:24.253Z,8.00
2019-02-18T23:55:57.544Z,8.00
2019-02-18T23:58:30.686Z,8.00
